createdAt,value
2022-12-27T00:00:43.730Z,101119.59
2022-12-27T00:03:11.165Z,101127.09
2022-12-27T00:05:38.548Z,101132.47
2022-12-27T00:08:05.954Z,101128.78
2022-12-27T00:10:37.270Z,101129.97
2022-12-27T00:13:06.226Z,101132.72
2022-12-27T00:15:34.067Z,101134.94
2022-12-27T00:18:03.322Z,101133.34
2022-12-27T00:20:30.679Z,101141.22
2022-12-27T00:23:00.614Z,101136.59
2022-12-27T00:25:27.999Z,101138.25
2022-12-27T00:27:55.376Z,101134.56
2022-12-27T00:30:22.764Z,101139.81
2022-12-27T00:32:50.125Z,101139.84
2022-12-27T00:35:19.137Z,101144.91
2022-12-27T00:37:46.448Z,101139.59
2022-12-27T00:40:16.218Z,101143.66
2022-12-27T00:42:43.533Z,101148.78
2022-12-27T00:45:11.966Z,101139.84
2022-12-27T00:47:40.166Z,101150.19
2022-12-27T00:50:07.894Z,101147.34
2022-12-27T00:52:36.560Z,101162.38
2022-12-27T00:55:04.305Z,101154.91
2022-12-27T00:57:31.621Z,101144.78
2022-12-27T01:00:00.567Z,101152.44
2022-12-27T01:02:29.662Z,101152.94
2022-12-27T01:04:57.372Z,101152.47
2022-12-27T01:07:25.225Z,101169.25
2022-12-27T01:09:53.913Z,101166.03
2022-12-27T01:12:21.314Z,101165.19
2022-12-27T01:14:48.642Z,101168.75
2022-12-27T01:17:16.308Z,101170.91
2022-12-27T01:19:43.684Z,101169.25
2022-12-27T01:22:12.353Z,101174.88
2022-12-27T01:24:39.699Z,101175.38
2022-12-27T01:27:10.119Z,101187.78
2022-12-27T01:29:37.467Z,101173.41
2022-12-27T01:32:04.942Z,101179.53
2022-12-27T01:34:32.339Z,101186.16
2022-12-27T01:36:59.718Z,101189.41
2022-12-27T01:39:27.113Z,101183.13
2022-12-27T01:42:12.062Z,101180.63
2022-12-27T01:44:57.022Z,101183.91
2022-12-27T01:47:32.448Z,101186.13
2022-12-27T01:50:06.838Z,101198.50
2022-12-27T01:52:37.398Z,101213.63
2022-12-27T01:55:20.087Z,101204.13
2022-12-27T01:57:48.134Z,101210.19
2022-12-27T02:00:17.349Z,101213.97
2022-12-27T02:02:44.823Z,101207.94
2022-12-27T02:05:17.332Z,101211.38
2022-12-27T02:07:55.630Z,101213.41
2022-12-27T02:10:22.994Z,101213.28
2022-12-27T02:12:50.356Z,101214.84
2022-12-27T02:15:19.191Z,101218.94
2022-12-27T02:17:46.586Z,101215.19
2022-12-27T02:20:17.121Z,101224.03
2022-12-27T02:23:40.289Z,101213.22
2022-12-27T02:26:28.955Z,101216.41
2022-12-27T02:29:16.389Z,101220.53
2022-12-27T02:31:50.083Z,101223.50
2022-12-27T02:34:20.457Z,101224.25
2022-12-27T02:36:47.929Z,101223.81
2022-12-27T02:39:17.847Z,101219.72
2022-12-27T02:42:03.308Z,101235.47
2022-12-27T02:44:49.967Z,101234.59
2022-12-27T02:47:37.339Z,101226.88
2022-12-27T02:50:23.541Z,101234.56
2022-12-27T02:53:04.620Z,101226.72
2022-12-27T02:56:06.416Z,101215.63
2022-12-27T02:58:38.907Z,101227.78
2022-12-27T03:01:32.446Z,101227.19
2022-12-27T03:04:11.324Z,101217.69
2022-12-27T03:06:54.337Z,101220.34
2022-12-27T03:09:53.329Z,101220.69
2022-12-27T03:12:45.521Z,101228.34
2022-12-27T03:15:42.352Z,101228.56
2022-12-27T03:18:14.874Z,101238.97
2022-12-27T03:21:01.271Z,101239.53
2022-12-27T03:23:47.005Z,101246.50
2022-12-27T03:26:15.818Z,101247.75
2022-12-27T03:29:02.194Z,101244.78
2022-12-27T03:31:49.374Z,101252.78
2022-12-27T03:34:33.145Z,101240.28
2022-12-27T03:37:22.877Z,101244.22
2022-12-27T03:39:55.512Z,101244.28
2022-12-27T03:42:42.527Z,101240.78
2022-12-27T03:45:11.019Z,101251.44
2022-12-27T03:47:41.174Z,101242.50
2022-12-27T03:50:11.975Z,101237.38
2022-12-27T03:52:42.797Z,101235.72
2022-12-27T03:55:10.869Z,101249.38
2022-12-27T03:57:38.550Z,101231.16
2022-12-27T04:00:07.213Z,101239.47
2022-12-27T04:02:34.708Z,101243.72
2022-12-27T04:05:02.139Z,101244.66
2022-12-27T04:07:30.843Z,101237.84
2022-12-27T04:10:15.583Z,101247.22
2022-12-27T04:13:00.365Z,101244.63
2022-12-27T04:15:45.583Z,101240.28
2022-12-27T04:18:30.442Z,101253.28
2022-12-27T04:21:15.622Z,101248.41
2022-12-27T04:24:02.137Z,101252.09
2022-12-27T04:26:47.074Z,101236.44
2022-12-27T04:29:31.858Z,101239.28
2022-12-27T04:32:16.642Z,101250.75
2022-12-27T04:34:44.304Z,101229.31
2022-12-27T04:37:14.031Z,101244.84
2022-12-27T04:40:02.790Z,101241.88
2022-12-27T04:42:47.794Z,101230.00
2022-12-27T04:45:32.473Z,101249.16
2022-12-27T04:48:17.668Z,101236.41
2022-12-27T04:51:02.990Z,101240.28
2022-12-27T04:53:48.722Z,101242.06
2022-12-27T04:56:17.428Z,101240.78
2022-12-27T04:59:04.923Z,101241.56
2022-12-27T05:01:50.177Z,101234.88
2022-12-27T05:04:17.677Z,101248.16
2022-12-27T05:06:45.091Z,101244.66
2022-12-27T05:09:30.239Z,101256.00
2022-12-27T05:12:15.891Z,101264.06
2022-12-27T05:14:43.242Z,101261.97
2022-12-27T05:17:10.628Z,101254.72
2022-12-27T05:19:38.003Z,101250.66
2022-12-27T05:22:22.740Z,101251.50
2022-12-27T05:25:07.423Z,101260.19
2022-12-27T05:27:36.145Z,101250.44
2022-12-27T05:30:03.517Z,101259.63
2022-12-27T05:32:30.898Z,101252.84
2022-12-27T05:34:58.271Z,101264.25
2022-12-27T05:37:25.666Z,101253.34
2022-12-27T05:39:53.051Z,101249.38
2022-12-27T05:42:20.409Z,101258.03
2022-12-27T05:44:49.118Z,101259.06
2022-12-27T05:47:16.489Z,101270.59
2022-12-27T05:49:43.866Z,101264.56
2022-12-27T05:52:11.201Z,101270.78
2022-12-27T05:54:38.552Z,101272.88
2022-12-27T05:57:05.914Z,101270.00
2022-12-27T05:59:33.263Z,101269.19
2022-12-27T06:02:03.702Z,101280.22
2022-12-27T06:04:31.209Z,101289.09
2022-12-27T06:06:59.134Z,101291.53
2022-12-27T06:09:26.509Z,101303.31
2022-12-27T06:11:53.851Z,101312.19
2022-12-27T06:14:21.281Z,101310.47
2022-12-27T06:16:48.641Z,101323.59
2022-12-27T06:19:17.378Z,101322.25
2022-12-27T06:21:44.720Z,101334.25
2022-12-27T06:24:12.065Z,101331.22
2022-12-27T06:26:39.456Z,101327.34
2022-12-27T06:29:06.874Z,101330.44
2022-12-27T06:31:36.416Z,101334.75
2022-12-27T06:34:04.082Z,101344.13
2022-12-27T06:36:32.933Z,101345.56
2022-12-27T06:39:00.821Z,101344.84
2022-12-27T06:41:28.172Z,101347.44
2022-12-27T06:43:57.972Z,101354.78
2022-12-27T06:46:25.887Z,101345.41
2022-12-27T06:48:53.710Z,101340.44
2022-12-27T06:51:21.910Z,101356.16
2022-12-27T06:53:51.034Z,101350.72
2022-12-27T06:56:19.612Z,101358.84
2022-12-27T06:58:50.003Z,101360.63
2022-12-27T07:01:19.868Z,101356.31
2022-12-27T07:03:49.718Z,101367.72
2022-12-27T07:06:17.163Z,101369.94
2022-12-27T07:08:44.480Z,101385.78
2022-12-27T07:11:14.234Z,101389.97
2022-12-27T07:13:43.811Z,101392.06
2022-12-27T07:16:13.644Z,101407.16
2022-12-27T07:18:41.249Z,101401.44
2022-12-27T07:21:09.190Z,101400.59
2022-12-27T07:23:37.302Z,101400.88
2022-12-27T07:26:06.446Z,101417.31
2022-12-27T07:28:35.170Z,101427.78
2022-12-27T07:31:07.939Z,101421.63
2022-12-27T07:33:35.739Z,101411.44
2022-12-27T07:36:03.832Z,101429.16
2022-12-27T07:38:34.002Z,101426.22
2022-12-27T07:41:01.835Z,101428.16
2022-12-27T07:43:30.149Z,101436.88
2022-12-27T07:46:05.304Z,101441.66
2022-12-27T07:48:34.357Z,101434.03
2022-12-27T07:51:01.717Z,101444.59
2022-12-27T07:53:29.052Z,101449.84
2022-12-27T07:55:56.452Z,101465.63
2022-12-27T07:58:23.882Z,101452.22
2022-12-27T08:00:52.336Z,101461.50
2022-12-27T08:03:22.061Z,101472.03
2022-12-27T08:05:52.521Z,101471.78
2022-12-27T08:08:21.873Z,101469.69
2022-12-27T08:10:49.356Z,101471.88
2022-12-27T08:13:16.847Z,101468.75
2022-12-27T08:15:44.532Z,101474.72
2022-12-27T08:18:11.879Z,101474.16
2022-12-27T08:20:40.571Z,101485.94
2022-12-27T08:23:07.894Z,101499.41
2022-12-27T08:25:35.263Z,101489.03
2022-12-27T08:28:06.147Z,101489.16
2022-12-27T08:30:33.581Z,101494.00
2022-12-27T08:33:01.606Z,101505.50
2022-12-27T08:38:17.654Z,101503.81
2022-12-27T08:40:46.153Z,101513.63
2022-12-27T08:43:14.175Z,101507.59
2022-12-27T08:45:41.564Z,101506.41
2022-12-27T08:48:09.169Z,101509.72
2022-12-27T08:50:36.605Z,101500.88
2022-12-27T08:53:05.563Z,101512.75
2022-12-27T08:55:34.881Z,101511.94
2022-12-27T08:58:03.467Z,101519.06
2022-12-27T09:00:31.199Z,101520.47
2022-12-27T09:02:58.790Z,101525.97
2022-12-27T09:05:27.379Z,101526.41
2022-12-27T09:07:55.186Z,101535.88
2022-12-27T09:10:23.522Z,101544.53
2022-12-27T09:12:52.355Z,101535.69
2022-12-27T09:15:19.774Z,101538.19
2022-12-27T09:17:47.109Z,101543.25
2022-12-27T09:20:14.468Z,101559.75
2022-12-27T09:22:41.857Z,101558.78
2022-12-27T09:25:09.749Z,101563.81
2022-12-27T09:27:37.355Z,101561.88
2022-12-27T09:30:08.170Z,101574.09
2022-12-27T09:32:35.734Z,101561.22
2022-12-27T09:35:03.158Z,101576.94
2022-12-27T09:37:30.500Z,101566.38
2022-12-27T09:39:57.911Z,101567.47
2022-12-27T09:42:50.796Z,101569.03
2022-12-27T09:45:21.547Z,101568.03
2022-12-27T09:47:53.287Z,101576.19
2022-12-27T09:50:26.109Z,101575.25
2022-12-27T09:52:58.318Z,101583.56
2022-12-27T09:55:35.791Z,101583.63
2022-12-27T09:58:10.892Z,101590.13
2022-12-27T10:00:45.901Z,101589.56
2022-12-27T10:03:13.675Z,101588.25
2022-12-27T10:05:43.455Z,101591.69
2022-12-27T10:08:24.359Z,101580.19
2022-12-27T10:10:56.771Z,101589.53
2022-12-27T10:13:35.237Z,101591.56
2022-12-27T10:16:12.604Z,101589.91
2022-12-27T10:18:45.740Z,101594.88
2022-12-27T10:21:21.471Z,101596.97
2022-12-27T10:23:54.310Z,101597.91
2022-12-27T10:26:22.378Z,101603.31
2022-12-27T10:28:57.219Z,101605.41
2022-12-27T10:31:26.832Z,101607.00
2022-12-27T10:33:54.697Z,101614.59
2022-12-27T10:36:24.919Z,101605.94
2022-12-27T10:38:52.260Z,101618.31
2022-12-27T10:41:31.119Z,101613.16
2022-12-27T10:43:58.556Z,101614.94
2022-12-27T10:46:32.678Z,101623.13
2022-12-27T10:51:51.062Z,101629.22
2022-12-27T10:54:22.274Z,101618.63
2022-12-27T10:56:49.638Z,101623.53
2022-12-27T10:59:18.895Z,101626.91
2022-12-27T11:01:49.810Z,101621.56
2022-12-27T11:04:20.933Z,101626.81
2022-12-27T11:06:51.358Z,101634.34
2022-12-27T11:09:27.243Z,101633.44
2022-12-27T11:12:12.602Z,101634.72
2022-12-27T11:14:40.020Z,101635.09
2022-12-27T11:17:11.116Z,101639.22
2022-12-27T11:19:41.759Z,101637.81
2022-12-27T11:22:11.802Z,101648.56
2022-12-27T11:24:45.705Z,101654.53
2022-12-27T11:27:22.252Z,101657.78
2022-12-27T11:29:49.698Z,101654.53
2022-12-27T11:32:18.799Z,101659.16
2022-12-27T11:34:48.920Z,101658.41
2022-12-27T11:37:19.098Z,101670.25
2022-12-27T11:39:48.094Z,101674.81
2022-12-27T11:42:20.780Z,101661.22
2022-12-27T11:44:56.339Z,101656.94
2022-12-27T11:47:31.434Z,101662.53
2022-12-27T11:50:06.622Z,101662.50
2022-12-27T11:52:49.049Z,101655.56
2022-12-27T11:55:39.868Z,101658.41
2022-12-27T11:58:20.931Z,101663.19
2022-12-27T12:00:55.636Z,101658.19
2022-12-27T12:03:45.767Z,101664.09
2022-12-27T12:06:16.979Z,101679.53
2022-12-27T12:08:58.275Z,101673.94
2022-12-27T12:11:35.225Z,101660.13
2022-12-27T12:14:24.961Z,101665.69
2022-12-27T12:17:12.950Z,101676.41
2022-12-27T12:19:54.621Z,101668.03
2022-12-27T12:22:30.936Z,101672.16
2022-12-27T12:25:28.761Z,101674.84
2022-12-27T12:28:38.799Z,101686.56
2022-12-27T12:31:14.986Z,101683.84
2022-12-27T12:33:55.882Z,101678.00
2022-12-27T12:36:52.111Z,101679.16
2022-12-27T12:39:26.174Z,101671.91
2022-12-27T12:42:19.430Z,101673.19
2022-12-27T12:45:06.568Z,101674.31
2022-12-27T12:47:59.135Z,101682.00
2022-12-27T12:50:34.660Z,101685.47
2022-12-27T12:53:23.472Z,101672.69
2022-12-27T12:55:58.680Z,101673.03
2022-12-27T12:58:39.820Z,101677.84
2022-12-27T13:01:18.090Z,101668.25
2022-12-27T13:03:54.541Z,101666.38
2022-12-27T13:06:40.917Z,101669.06
2022-12-27T13:09:17.915Z,101667.59
2022-12-27T13:11:53.901Z,101671.41
2022-12-27T13:14:47.149Z,101668.47
2022-12-27T13:17:17.450Z,101659.69
2022-12-27T13:19:57.251Z,101659.84
2022-12-27T13:22:32.709Z,101664.91
2022-12-27T13:25:11.172Z,101675.44
2022-12-27T13:27:43.382Z,101682.22
2022-12-27T13:30:19.976Z,101675.69
2022-12-27T13:33:00.702Z,101684.41
2022-12-27T13:35:35.975Z,101669.59
2022-12-27T13:38:20.413Z,101674.13
2022-12-27T13:41:03.987Z,101671.28
2022-12-27T13:43:50.976Z,101659.06
2022-12-27T13:46:42.406Z,101662.44
2022-12-27T13:49:24.203Z,101667.59
2022-12-27T13:51:52.313Z,101655.06
2022-12-27T13:54:43.059Z,101654.25
2022-12-27T13:57:23.838Z,101655.00
2022-12-27T14:00:01.376Z,101649.19
2022-12-27T14:02:45.318Z,101650.22
2022-12-27T14:05:38.231Z,101648.06
2022-12-27T14:08:12.904Z,101645.72
2022-12-27T14:10:44.265Z,101656.41
2022-12-27T14:13:14.185Z,101650.56
2022-12-27T14:16:01.055Z,101655.53
2022-12-27T14:18:38.790Z,101647.56
2022-12-27T14:21:16.227Z,101656.16
2022-12-27T14:24:00.166Z,101650.38
2022-12-27T14:27:18.213Z,101658.56
2022-12-27T14:30:06.134Z,101660.34
2022-12-27T14:32:47.394Z,101663.00
2022-12-27T14:35:31.643Z,101666.66
2022-12-27T14:38:24.301Z,101659.81
2022-12-27T14:41:05.068Z,101654.63
2022-12-27T14:43:59.164Z,101659.81
2022-12-27T14:46:52.924Z,101669.22
2022-12-27T14:50:14.094Z,101658.06
2022-12-27T14:53:05.274Z,101663.03
2022-12-27T14:55:43.048Z,101660.53
2022-12-27T14:58:20.336Z,101661.88
2022-12-27T15:01:03.206Z,101665.16
2022-12-27T15:03:45.929Z,101665.69
2022-12-27T15:06:16.968Z,101671.53
2022-12-27T15:08:53.370Z,101677.13
2022-12-27T15:11:45.547Z,101672.75
2022-12-27T15:14:26.703Z,101664.50
2022-12-27T15:17:00.148Z,101660.19
2022-12-27T15:19:42.559Z,101673.16
2022-12-27T15:22:13.310Z,101664.41
2022-12-27T15:24:49.376Z,101667.75
2022-12-27T15:27:21.840Z,101666.53
2022-12-27T15:30:03.193Z,101669.34
2022-12-27T15:32:36.985Z,101672.50
2022-12-27T15:35:20.246Z,101664.00
2022-12-27T15:38:07.954Z,101661.56
2022-12-27T15:40:47.647Z,101663.88
2022-12-27T15:43:28.105Z,101676.47
2022-12-27T15:46:07.885Z,101671.63
2022-12-27T15:48:59.139Z,101667.41
2022-12-27T15:51:33.065Z,101675.66
2022-12-27T15:54:09.587Z,101672.91
2022-12-27T15:56:44.074Z,101668.38
2022-12-27T15:59:38.776Z,101657.75
2022-12-27T16:02:24.780Z,101659.59
2022-12-27T16:04:53.974Z,101659.50
2022-12-27T16:07:41.685Z,101661.84
2022-12-27T16:10:42.741Z,101662.59
2022-12-27T16:13:34.341Z,101656.91
2022-12-27T16:16:06.258Z,101654.84
2022-12-27T16:18:43.954Z,101650.03
2022-12-27T16:21:16.129Z,101642.38
2022-12-27T16:23:53.008Z,101648.56
2022-12-27T16:26:22.641Z,101644.75
2022-12-27T16:28:55.963Z,101632.56
2022-12-27T16:31:24.740Z,101644.75
2022-12-27T16:33:53.276Z,101642.34
2022-12-27T16:36:24.399Z,101648.03
2022-12-27T16:39:03.727Z,101643.91
2022-12-27T16:41:52.978Z,101649.66
2022-12-27T16:44:29.702Z,101648.38
2022-12-27T16:47:07.355Z,101645.34
2022-12-27T16:49:46.377Z,101642.03
2022-12-27T16:52:31.054Z,101643.94
2022-12-27T16:55:06.917Z,101639.94
2022-12-27T16:57:40.382Z,101645.38
2022-12-27T17:00:38.443Z,101637.94
2022-12-27T17:03:29.919Z,101650.34
2022-12-27T17:06:30.681Z,101642.53
2022-12-27T17:08:46.172Z,101651.44
2022-12-27T17:11:26.201Z,101656.78
2022-12-27T17:13:56.895Z,101641.41
2022-12-27T17:16:26.206Z,101636.22
2022-12-27T17:18:56.057Z,101638.56
2022-12-27T17:21:30.092Z,101639.75
2022-12-27T17:24:00.010Z,101641.16
2022-12-27T17:27:07.147Z,101638.31
2022-12-27T17:30:00.079Z,101640.13
2022-12-27T17:32:43.200Z,101637.94
2022-12-27T17:35:15.339Z,101635.72
2022-12-27T17:37:48.955Z,101630.31
2022-12-27T17:40:27.391Z,101635.91
2022-12-27T17:43:22.606Z,101631.41
2022-12-27T17:45:54.739Z,101636.25
2022-12-27T17:48:26.841Z,101631.41
2022-12-27T17:50:55.823Z,101631.69
2022-12-27T17:53:41.233Z,101635.91
2022-12-27T17:56:37.548Z,101624.78
2022-12-27T17:59:14.078Z,101633.78
2022-12-27T18:01:46.082Z,101628.25
2022-12-27T18:04:20.490Z,101617.50
2022-12-27T18:06:48.019Z,101621.09
2022-12-27T18:09:24.244Z,101610.75
2022-12-27T18:11:51.599Z,101612.69
2022-12-27T18:14:18.948Z,101616.13
2022-12-27T18:16:48.299Z,101621.47
2022-12-27T18:19:19.677Z,101607.88
2022-12-27T18:21:56.179Z,101610.34
2022-12-27T18:24:27.803Z,101610.63
2022-12-27T18:27:03.666Z,101614.22
2022-12-27T18:29:31.176Z,101609.59
2022-12-27T18:32:03.771Z,101604.63
2022-12-27T18:34:35.366Z,101594.91
2022-12-27T18:37:04.280Z,101599.09
2022-12-27T18:39:33.389Z,101590.75
2022-12-27T18:42:03.523Z,101593.16
2022-12-27T18:44:33.847Z,101593.78
2022-12-27T18:47:04.061Z,101587.56
2022-12-27T18:49:33.564Z,101587.91
2022-12-27T18:52:03.150Z,101575.34
2022-12-27T18:54:35.614Z,101571.22
2022-12-27T18:57:05.036Z,101571.03
2022-12-27T18:59:33.519Z,101570.09
2022-12-27T19:02:04.269Z,101572.88
2022-12-27T19:04:32.904Z,101559.69
2022-12-27T19:07:08.011Z,101565.66
2022-12-27T19:09:38.107Z,101556.50
2022-12-27T19:12:07.925Z,101559.94
2022-12-27T19:14:38.937Z,101562.47
2022-12-27T19:17:11.183Z,101559.53
2022-12-27T19:19:38.825Z,101563.13
2022-12-27T19:22:32.230Z,101550.50
2022-12-27T19:25:00.198Z,101560.38
2022-12-27T19:27:27.611Z,101547.59
2022-12-27T19:29:54.935Z,101550.59
2022-12-27T19:32:28.379Z,101542.84
2022-12-27T19:34:59.214Z,101537.50
2022-12-27T19:37:26.938Z,101540.09
2022-12-27T19:39:54.352Z,101540.44
2022-12-27T19:42:26.892Z,101533.38
2022-12-27T19:44:54.233Z,101526.41
2022-12-27T19:47:21.582Z,101527.97
2022-12-27T19:49:50.342Z,101529.16
2022-12-27T19:52:20.116Z,101524.28
2022-12-27T19:54:48.021Z,101515.31
2022-12-27T19:57:15.563Z,101517.31
2022-12-27T19:59:42.924Z,101511.63
2022-12-27T20:02:10.856Z,101511.25
2022-12-27T20:04:38.406Z,101504.13
2022-12-27T20:07:07.187Z,101505.50
2022-12-27T20:09:34.504Z,101505.03
2022-12-27T20:12:04.437Z,101505.09
2022-12-27T20:14:31.766Z,101507.75
2022-12-27T20:16:59.123Z,101507.75
2022-12-27T20:19:26.500Z,101509.88
2022-12-27T20:21:53.812Z,101503.16
2022-12-27T20:24:23.062Z,101502.78
2022-12-27T20:26:50.474Z,101498.13
2022-12-27T20:29:17.841Z,101496.41
2022-12-27T20:31:48.343Z,101505.94
2022-12-27T20:34:15.701Z,101489.88
2022-12-27T20:36:44.526Z,101487.47
2022-12-27T20:39:12.831Z,101484.63
2022-12-27T20:41:41.486Z,101487.66
2022-12-27T20:44:08.921Z,101482.97
2022-12-27T20:46:36.255Z,101474.41
2022-12-27T20:49:03.619Z,101470.38
2022-12-27T20:51:33.177Z,101462.97
2022-12-27T20:56:54.982Z,101454.78
2022-12-27T20:59:22.399Z,101454.03
2022-12-27T21:01:56.613Z,101446.59
2022-12-27T21:04:24.531Z,101439.19
2022-12-27T21:06:52.044Z,101437.72
2022-12-27T21:09:19.737Z,101439.88
2022-12-27T21:11:47.056Z,101438.81
2022-12-27T21:14:18.316Z,101441.22
2022-12-27T21:16:48.892Z,101455.53
2022-12-27T21:19:16.285Z,101441.91
2022-12-27T21:21:44.581Z,101445.53
2022-12-27T21:24:14.229Z,101449.06
2022-12-27T21:26:43.789Z,101442.47
2022-12-27T21:29:12.240Z,101440.44
2022-12-27T21:31:43.401Z,101435.59
2022-12-27T21:34:10.746Z,101430.25
2022-12-27T21:36:38.699Z,101432.03
2022-12-27T21:39:07.676Z,101431.75
2022-12-27T21:41:36.561Z,101432.38
2022-12-27T21:44:05.316Z,101425.50
2022-12-27T21:46:34.572Z,101431.19
2022-12-27T21:49:04.917Z,101428.16
2022-12-27T21:51:33.212Z,101422.00
2022-12-27T21:54:00.919Z,101418.13
2022-12-27T21:56:28.740Z,101415.72
2022-12-27T21:58:56.533Z,101414.19
2022-12-27T22:01:27.960Z,101404.53
2022-12-27T22:03:58.830Z,101394.41
2022-12-27T22:06:28.984Z,101390.34
2022-12-27T22:08:58.541Z,101386.16
2022-12-27T22:11:27.238Z,101387.44
2022-12-27T22:13:55.175Z,101385.31
2022-12-27T22:16:25.814Z,101381.25
2022-12-27T22:18:55.864Z,101377.53
2022-12-27T22:21:26.820Z,101373.69
2022-12-27T22:23:56.685Z,101370.16
2022-12-27T22:26:26.405Z,101366.88
2022-12-27T22:28:53.765Z,101357.63
2022-12-27T22:31:22.641Z,101357.50
2022-12-27T22:33:50.930Z,101346.78
2022-12-27T22:36:19.850Z,101347.47
2022-12-27T22:38:49.753Z,101344.56
2022-12-27T22:41:20.623Z,101339.47
2022-12-27T22:43:51.209Z,101327.19
2022-12-27T22:46:19.367Z,101325.97
2022-12-27T22:48:49.977Z,101324.56
2022-12-27T22:51:18.650Z,101322.53
2022-12-27T22:53:45.981Z,101311.25
2022-12-27T22:56:14.933Z,101314.09
2022-12-27T22:58:44.069Z,101305.59
2022-12-27T23:01:12.772Z,101323.88
2022-12-27T23:03:40.294Z,101306.41
2022-12-27T23:06:08.031Z,101315.47
2022-12-27T23:08:36.782Z,101316.13
2022-12-27T23:11:05.069Z,101307.34
2022-12-27T23:13:32.577Z,101308.78
2022-12-27T23:16:03.323Z,101304.53
2022-12-27T23:18:31.213Z,101300.00
2022-12-27T23:21:20.222Z,101302.91
2022-12-27T23:23:46.374Z,101286.69
2022-12-27T23:26:16.187Z,101281.59
2022-12-27T23:28:45.530Z,101278.50
2022-12-27T23:31:14.899Z,101287.34
2022-12-27T23:33:43.233Z,101272.81
2022-12-27T23:36:11.623Z,101276.91
2022-12-27T23:38:41.500Z,101275.09
2022-12-27T23:41:09.635Z,101256.03
2022-12-27T23:43:55.260Z,101262.13
2022-12-27T23:46:27.205Z,101246.59
2022-12-27T23:48:55.158Z,101249.03
2022-12-27T23:51:22.723Z,101240.19
2022-12-27T23:53:50.074Z,101233.88
2022-12-27T23:56:19.241Z,101229.72
2022-12-27T23:58:47.433Z,101214.16
